sensor_id;sensor_type;location;lat;lon;timestamp;temperature;humidity
25058;DHT22;13057;50.978;11.034;2023-01-19T00:01:41;0.50;99.70
25058;DHT22;13057;50.978;11.034;2023-01-19T00:04:07;0.40;99.50
25058;DHT22;13057;50.978;11.034;2023-01-19T00:06:33;0.40;99.70
25058;DHT22;13057;50.978;11.034;2023-01-19T00:08:58;0.50;99.90
25058;DHT22;13057;50.978;11.034;2023-01-19T00:11:24;0.50;99.60
25058;DHT22;13057;50.978;11.034;2023-01-19T00:13:50;0.50;99.50
25058;DHT22;13057;50.978;11.034;2023-01-19T00:16:18;0.50;99.50
25058;DHT22;13057;50.978;11.034;2023-01-19T00:18:44;0.60;99.50
25058;DHT22;13057;50.978;11.034;2023-01-19T00:21:10;0.60;99.60
25058;DHT22;13057;50.978;11.034;2023-01-19T00:23:36;0.50;99.50
25058;DHT22;13057;50.978;11.034;2023-01-19T00:26:03;0.50;99.60
25058;DHT22;13057;50.978;11.034;2023-01-19T00:28:28;0.50;99.80
25058;DHT22;13057;50.978;11.034;2023-01-19T00:30:54;0.50;99.90
25058;DHT22;13057;50.978;11.034;2023-01-19T00:33:20;0.50;99.90
25058;DHT22;13057;50.978;11.034;2023-01-19T00:35:50;0.50;99.90
25058;DHT22;13057;50.978;11.034;2023-01-19T00:38:17;0.50;99.90
25058;DHT22;13057;50.978;11.034;2023-01-19T00:40:43;0.50;99.70
25058;DHT22;13057;50.978;11.034;2023-01-19T00:43:09;0.50;99.80
25058;DHT22;13057;50.978;11.034;2023-01-19T00:45:35;0.40;99.50
25058;DHT22;13057;50.978;11.034;2023-01-19T00:48:01;0.50;99.40
25058;DHT22;13057;50.978;11.034;2023-01-19T00:50:28;0.50;99.30
25058;DHT22;13057;50.978;11.034;2023-01-19T00:52:55;0.60;99.30
25058;DHT22;13057;50.978;11.034;2023-01-19T00:55:22;0.70;99.10
25058;DHT22;13057;50.978;11.034;2023-01-19T00:57:48;0.70;99.10
25058;DHT22;13057;50.978;11.034;2023-01-19T01:00:16;0.80;99.00
25058;DHT22;13057;50.978;11.034;2023-01-19T01:02:45;0.80;98.90
25058;DHT22;13057;50.978;11.034;2023-01-19T01:05:11;0.80;98.70
25058;DHT22;13057;50.978;11.034;2023-01-19T01:07:38;0.70;98.80
25058;DHT22;13057;50.978;11.034;2023-01-19T01:10:08;0.70;99.00
25058;DHT22;13057;50.978;11.034;2023-01-19T01:12:35;0.70;99.10
25058;DHT22;13057;50.978;11.034;2023-01-19T01:15:00;0.70;98.90
25058;DHT22;13057;50.978;11.034;2023-01-19T01:17:26;0.60;98.90
25058;DHT22;13057;50.978;11.034;2023-01-19T01:19:52;0.50;98.90
25058;DHT22;13057;50.978;11.034;2023-01-19T01:22:18;0.40;99.10
25058;DHT22;13057;50.978;11.034;2023-01-19T01:24:44;0.30;99.20
25058;DHT22;13057;50.978;11.034;2023-01-19T01:27:10;0.30;99.50
25058;DHT22;13057;50.978;11.034;2023-01-19T01:29:36;0.20;99.30
25058;DHT22;13057;50.978;11.034;2023-01-19T01:32:02;0.10;99.30
25058;DHT22;13057;50.978;11.034;2023-01-19T01:34:28;0.10;99.50
25058;DHT22;13057;50.978;11.034;2023-01-19T01:36:54;0.10;99.60
25058;DHT22;13057;50.978;11.034;2023-01-19T01:39:20;0.00;99.60
25058;DHT22;13057;50.978;11.034;2023-01-19T01:41:47;0.00;99.70
25058;DHT22;13057;50.978;11.034;2023-01-19T01:47:03;0.10;99.90
25058;DHT22;13057;50.978;11.034;2023-01-19T01:49:29;0.20;99.80
25058;DHT22;13057;50.978;11.034;2023-01-19T01:51:55;0.30;99.90
25058;DHT22;13057;50.978;11.034;2023-01-19T01:54:25;0.50;99.80
25058;DHT22;13057;50.978;11.034;2023-01-19T01:56:55;0.70;99.60
25058;DHT22;13057;50.978;11.034;2023-01-19T01:59:25;0.80;99.20
25058;DHT22;13057;50.978;11.034;2023-01-19T02:01:56;0.90;99.10
25058;DHT22;13057;50.978;11.034;2023-01-19T02:04:34;1.00;99.00
25058;DHT22;13057;50.978;11.034;2023-01-19T02:07:00;1.00;98.90
25058;DHT22;13057;50.978;11.034;2023-01-19T02:09:38;1.10;98.90
25058;DHT22;13057;50.978;11.034;2023-01-19T02:12:16;1.20;98.80
25058;DHT22;13057;50.978;11.034;2023-01-19T02:14:54;1.20;98.70
25058;DHT22;13057;50.978;11.034;2023-01-19T02:17:20;1.20;98.80
25058;DHT22;13057;50.978;11.034;2023-01-19T02:19:46;1.10;98.70
25058;DHT22;13057;50.978;11.034;2023-01-19T02:22:19;1.10;98.90
25058;DHT22;13057;50.978;11.034;2023-01-19T02:24:47;1.00;99.10
25058;DHT22;13057;50.978;11.034;2023-01-19T02:27:17;0.90;99.00
25058;DHT22;13057;50.978;11.034;2023-01-19T02:29:43;0.80;99.30
25058;DHT22;13057;50.978;11.034;2023-01-19T02:32:09;0.70;99.50
25058;DHT22;13057;50.978;11.034;2023-01-19T02:34:35;0.60;99.70
25058;DHT22;13057;50.978;11.034;2023-01-19T02:37:10;0.50;99.60
25058;DHT22;13057;50.978;11.034;2023-01-19T02:39:42;0.50;99.90
25058;DHT22;13057;50.978;11.034;2023-01-19T02:42:17;0.50;99.90
25058;DHT22;13057;50.978;11.034;2023-01-19T02:44:47;0.60;99.70
25058;DHT22;13057;50.978;11.034;2023-01-19T02:47:13;0.60;99.70
25058;DHT22;13057;50.978;11.034;2023-01-19T02:49:39;0.50;99.70
25058;DHT22;13057;50.978;11.034;2023-01-19T02:52:11;0.40;99.80
25058;DHT22;13057;50.978;11.034;2023-01-19T02:54:48;0.50;99.90
25058;DHT22;13057;50.978;11.034;2023-01-19T02:57:34;0.50;99.70
25058;DHT22;13057;50.978;11.034;2023-01-19T03:00:11;0.50;99.80
25058;DHT22;13057;50.978;11.034;2023-01-19T03:02:54;0.40;99.90
25058;DHT22;13057;50.978;11.034;2023-01-19T03:05:31;0.40;99.90
25058;DHT22;13057;50.978;11.034;2023-01-19T03:08:07;0.40;99.90
25058;DHT22;13057;50.978;11.034;2023-01-19T03:10:50;0.30;99.90
25058;DHT22;13057;50.978;11.034;2023-01-19T03:13:37;0.30;99.90
25058;DHT22;13057;50.978;11.034;2023-01-19T03:16:20;0.30;99.90
25058;DHT22;13057;50.978;11.034;2023-01-19T03:18:51;0.30;99.90
25058;DHT22;13057;50.978;11.034;2023-01-19T03:21:22;0.30;99.90
25058;DHT22;13057;50.978;11.034;2023-01-19T03:23:49;0.20;99.90
25058;DHT22;13057;50.978;11.034;2023-01-19T03:26:19;0.20;99.90
25058;DHT22;13057;50.978;11.034;2023-01-19T03:28:46;0.10;99.90
25058;DHT22;13057;50.978;11.034;2023-01-19T03:31:17;0.10;99.90
25058;DHT22;13057;50.978;11.034;2023-01-19T03:33:46;0.10;99.90
25058;DHT22;13057;50.978;11.034;2023-01-19T03:36:20;0.00;99.90
25058;DHT22;13057;50.978;11.034;2023-01-19T03:38:48;0.10;99.90
25058;DHT22;13057;50.978;11.034;2023-01-19T03:41:17;0.10;99.90
25058;DHT22;13057;50.978;11.034;2023-01-19T03:43:44;0.10;99.90
25058;DHT22;13057;50.978;11.034;2023-01-19T03:46:12;0.20;99.90
25058;DHT22;13057;50.978;11.034;2023-01-19T03:48:41;0.10;99.90
25058;DHT22;13057;50.978;11.034;2023-01-19T03:51:09;0.20;99.90
25058;DHT22;13057;50.978;11.034;2023-01-19T03:53:35;0.30;99.90
25058;DHT22;13057;50.978;11.034;2023-01-19T03:56:01;0.40;99.90
25058;DHT22;13057;50.978;11.034;2023-01-19T03:58:28;0.40;99.90
25058;DHT22;13057;50.978;11.034;2023-01-19T04:00:54;0.40;99.90
25058;DHT22;13057;50.978;11.034;2023-01-19T04:03:20;0.50;99.90
25058;DHT22;13057;50.978;11.034;2023-01-19T04:05:46;0.40;99.90
25058;DHT22;13057;50.978;11.034;2023-01-19T04:08:12;0.40;99.90
25058;DHT22;13057;50.978;11.034;2023-01-19T04:10:38;0.40;99.90
25058;DHT22;13057;50.978;11.034;2023-01-19T04:13:04;0.40;99.90
25058;DHT22;13057;50.978;11.034;2023-01-19T04:15:30;0.50;99.90
25058;DHT22;13057;50.978;11.034;2023-01-19T04:17:57;0.50;99.90
25058;DHT22;13057;50.978;11.034;2023-01-19T04:20:24;0.60;99.90
25058;DHT22;13057;50.978;11.034;2023-01-19T04:22:51;0.60;99.90
25058;DHT22;13057;50.978;11.034;2023-01-19T04:25:17;0.60;99.90
25058;DHT22;13057;50.978;11.034;2023-01-19T04:27:43;0.60;99.90
25058;DHT22;13057;50.978;11.034;2023-01-19T04:30:09;0.70;99.90
25058;DHT22;13057;50.978;11.034;2023-01-19T04:32:35;0.70;99.90
25058;DHT22;13057;50.978;11.034;2023-01-19T04:35:01;0.70;99.90
25058;DHT22;13057;50.978;11.034;2023-01-19T04:37:27;0.70;99.90
25058;DHT22;13057;50.978;11.034;2023-01-19T04:39:53;0.70;99.90
25058;DHT22;13057;50.978;11.034;2023-01-19T04:42:19;0.80;99.90
25058;DHT22;13057;50.978;11.034;2023-01-19T04:44:44;0.80;99.90
25058;DHT22;13057;50.978;11.034;2023-01-19T04:47:11;0.90;99.90
25058;DHT22;13057;50.978;11.034;2023-01-19T04:49:37;0.90;99.90
25058;DHT22;13057;50.978;11.034;2023-01-19T04:52:03;0.90;99.90
25058;DHT22;13057;50.978;11.034;2023-01-19T04:54:29;1.00;99.90
25058;DHT22;13057;50.978;11.034;2023-01-19T04:56:55;1.10;99.90
25058;DHT22;13057;50.978;11.034;2023-01-19T04:59:22;1.20;99.90
25058;DHT22;13057;50.978;11.034;2023-01-19T05:01:48;1.20;99.90
25058;DHT22;13057;50.978;11.034;2023-01-19T05:04:14;1.20;99.90
25058;DHT22;13057;50.978;11.034;2023-01-19T05:06:40;1.30;99.90
25058;DHT22;13057;50.978;11.034;2023-01-19T05:09:06;1.30;99.90
25058;DHT22;13057;50.978;11.034;2023-01-19T05:11:34;1.20;99.90
25058;DHT22;13057;50.978;11.034;2023-01-19T05:14:00;1.20;99.90
25058;DHT22;13057;50.978;11.034;2023-01-19T05:16:26;1.10;99.90
25058;DHT22;13057;50.978;11.034;2023-01-19T05:18:52;1.10;99.90
25058;DHT22;13057;50.978;11.034;2023-01-19T05:21:18;1.10;99.90
25058;DHT22;13057;50.978;11.034;2023-01-19T05:23:44;1.10;99.90
25058;DHT22;13057;50.978;11.034;2023-01-19T05:26:10;1.00;99.90
25058;DHT22;13057;50.978;11.034;2023-01-19T05:28:36;1.00;99.90
25058;DHT22;13057;50.978;11.034;2023-01-19T05:31:02;1.00;99.90
25058;DHT22;13057;50.978;11.034;2023-01-19T05:33:28;1.00;99.90
25058;DHT22;13057;50.978;11.034;2023-01-19T05:35:54;1.00;99.90
25058;DHT22;13057;50.978;11.034;2023-01-19T05:38:21;1.10;99.90
25058;DHT22;13057;50.978;11.034;2023-01-19T05:40:47;1.10;99.90
25058;DHT22;13057;50.978;11.034;2023-01-19T05:43:13;1.10;99.90
25058;DHT22;13057;50.978;11.034;2023-01-19T05:45:39;1.10;99.90
25058;DHT22;13057;50.978;11.034;2023-01-19T05:48:07;1.10;99.90
25058;DHT22;13057;50.978;11.034;2023-01-19T05:50:33;1.10;99.90
25058;DHT22;13057;50.978;11.034;2023-01-19T05:53:02;1.10;99.90
25058;DHT22;13057;50.978;11.034;2023-01-19T05:55:28;1.20;99.90
25058;DHT22;13057;50.978;11.034;2023-01-19T05:57:54;1.20;99.90
25058;DHT22;13057;50.978;11.034;2023-01-19T06:00:20;1.10;99.90
25058;DHT22;13057;50.978;11.034;2023-01-19T06:02:46;1.10;99.90
25058;DHT22;13057;50.978;11.034;2023-01-19T06:05:14;1.10;99.90
25058;DHT22;13057;50.978;11.034;2023-01-19T06:07:40;1.10;99.90
25058;DHT22;13057;50.978;11.034;2023-01-19T06:10:06;1.00;99.90
25058;DHT22;13057;50.978;11.034;2023-01-19T06:12:32;0.90;99.90
25058;DHT22;13057;50.978;11.034;2023-01-19T06:15:02;0.90;99.90
25058;DHT22;13057;50.978;11.034;2023-01-19T06:17:30;0.90;99.90
25058;DHT22;13057;50.978;11.034;2023-01-19T06:19:56;0.90;99.90
25058;DHT22;13057;50.978;11.034;2023-01-19T06:22:21;1.00;99.90
25058;DHT22;13057;50.978;11.034;2023-01-19T06:24:47;1.00;99.90
25058;DHT22;13057;50.978;11.034;2023-01-19T06:27:13;0.90;99.90
25058;DHT22;13057;50.978;11.034;2023-01-19T06:29:39;0.90;99.90
25058;DHT22;13057;50.978;11.034;2023-01-19T06:32:05;0.90;99.90
25058;DHT22;13057;50.978;11.034;2023-01-19T06:34:31;0.90;99.90
25058;DHT22;13057;50.978;11.034;2023-01-19T06:36:57;0.90;99.90
25058;DHT22;13057;50.978;11.034;2023-01-19T06:39:23;0.90;99.90
25058;DHT22;13057;50.978;11.034;2023-01-19T06:41:49;1.00;99.90
25058;DHT22;13057;50.978;11.034;2023-01-19T06:44:15;1.00;99.90
25058;DHT22;13057;50.978;11.034;2023-01-19T06:46:41;1.10;99.90
25058;DHT22;13057;50.978;11.034;2023-01-19T06:49:07;1.20;99.90
25058;DHT22;13057;50.978;11.034;2023-01-19T06:51:33;1.30;99.90
25058;DHT22;13057;50.978;11.034;2023-01-19T06:53:59;1.40;99.90
25058;DHT22;13057;50.978;11.034;2023-01-19T06:56:25;1.50;99.90
25058;DHT22;13057;50.978;11.034;2023-01-19T06:58:51;1.50;99.90
25058;DHT22;13057;50.978;11.034;2023-01-19T07:01:18;1.60;99.90
25058;DHT22;13057;50.978;11.034;2023-01-19T07:03:44;1.60;99.90
25058;DHT22;13057;50.978;11.034;2023-01-19T07:06:10;1.70;99.90
25058;DHT22;13057;50.978;11.034;2023-01-19T07:08:36;1.70;99.90
25058;DHT22;13057;50.978;11.034;2023-01-19T07:11:05;1.70;99.90
25058;DHT22;13057;50.978;11.034;2023-01-19T07:13:32;1.80;99.90
25058;DHT22;13057;50.978;11.034;2023-01-19T07:16:03;1.70;99.90
25058;DHT22;13057;50.978;11.034;2023-01-19T07:18:30;1.80;99.90
25058;DHT22;13057;50.978;11.034;2023-01-19T07:20:57;1.80;99.90
25058;DHT22;13057;50.978;11.034;2023-01-19T07:23:23;1.80;99.90
25058;DHT22;13057;50.978;11.034;2023-01-19T07:25:49;1.80;99.90
25058;DHT22;13057;50.978;11.034;2023-01-19T07:28:15;1.80;99.90
25058;DHT22;13057;50.978;11.034;2023-01-19T07:30:42;1.80;99.90
25058;DHT22;13057;50.978;11.034;2023-01-19T07:33:08;1.80;99.90
25058;DHT22;13057;50.978;11.034;2023-01-19T07:35:34;1.80;99.90
25058;DHT22;13057;50.978;11.034;2023-01-19T07:38:00;1.80;99.90
25058;DHT22;13057;50.978;11.034;2023-01-19T07:40:26;1.80;99.90
25058;DHT22;13057;50.978;11.034;2023-01-19T07:42:52;1.70;99.90
25058;DHT22;13057;50.978;11.034;2023-01-19T07:45:19;1.80;99.90
25058;DHT22;13057;50.978;11.034;2023-01-19T07:47:47;1.80;99.90
25058;DHT22;13057;50.978;11.034;2023-01-19T07:50:14;1.90;99.90
25058;DHT22;13057;50.978;11.034;2023-01-19T07:52:41;1.90;99.90
25058;DHT22;13057;50.978;11.034;2023-01-19T07:55:07;1.90;99.90
25058;DHT22;13057;50.978;11.034;2023-01-19T07:57:34;1.90;99.90
25058;DHT22;13057;50.978;11.034;2023-01-19T08:00:00;1.90;99.90
25058;DHT22;13057;50.978;11.034;2023-01-19T08:02:26;1.80;99.90
25058;DHT22;13057;50.978;11.034;2023-01-19T08:04:52;1.80;99.90
25058;DHT22;13057;50.978;11.034;2023-01-19T08:07:18;1.80;99.90
25058;DHT22;13057;50.978;11.034;2023-01-19T08:09:43;2.00;99.90
25058;DHT22;13057;50.978;11.034;2023-01-19T08:12:09;2.30;99.90
25058;DHT22;13057;50.978;11.034;2023-01-19T08:14:35;2.40;99.70
25058;DHT22;13057;50.978;11.034;2023-01-19T08:17:02;2.30;99.40
25058;DHT22;13057;50.978;11.034;2023-01-19T08:19:28;2.30;99.80
25058;DHT22;13057;50.978;11.034;2023-01-19T08:21:54;2.40;99.80
25058;DHT22;13057;50.978;11.034;2023-01-19T08:24:21;2.40;99.50
25058;DHT22;13057;50.978;11.034;2023-01-19T08:26:49;2.40;99.70
25058;DHT22;13057;50.978;11.034;2023-01-19T08:29:15;2.40;99.80
25058;DHT22;13057;50.978;11.034;2023-01-19T08:31:41;2.40;99.80
25058;DHT22;13057;50.978;11.034;2023-01-19T08:34:08;2.30;99.90
25058;DHT22;13057;50.978;11.034;2023-01-19T08:36:34;2.40;99.80
25058;DHT22;13057;50.978;11.034;2023-01-19T08:38:59;2.40;99.80
25058;DHT22;13057;50.978;11.034;2023-01-19T08:41:25;2.50;99.70
25058;DHT22;13057;50.978;11.034;2023-01-19T08:43:51;2.50;99.70
25058;DHT22;13057;50.978;11.034;2023-01-19T08:46:17;2.40;99.70
25058;DHT22;13057;50.978;11.034;2023-01-19T08:48:46;2.40;99.70
25058;DHT22;13057;50.978;11.034;2023-01-19T08:51:14;2.40;99.70
25058;DHT22;13057;50.978;11.034;2023-01-19T08:53:41;2.40;99.80
25058;DHT22;13057;50.978;11.034;2023-01-19T08:56:08;2.40;99.70
25058;DHT22;13057;50.978;11.034;2023-01-19T08:58:38;2.40;99.80
25058;DHT22;13057;50.978;11.034;2023-01-19T09:01:06;2.50;99.90
25058;DHT22;13057;50.978;11.034;2023-01-19T09:03:34;2.60;99.90
25058;DHT22;13057;50.978;11.034;2023-01-19T09:06:00;2.70;99.80
25058;DHT22;13057;50.978;11.034;2023-01-19T09:08:27;2.70;99.60
25058;DHT22;13057;50.978;11.034;2023-01-19T09:10:53;2.70;99.60
25058;DHT22;13057;50.978;11.034;2023-01-19T09:13:19;2.80;99.70
25058;DHT22;13057;50.978;11.034;2023-01-19T09:15:46;3.10;99.50
25058;DHT22;13057;50.978;11.034;2023-01-19T09:18:15;3.50;99.00
25058;DHT22;13057;50.978;11.034;2023-01-19T09:20:42;3.80;98.80
25058;DHT22;13057;50.978;11.034;2023-01-19T09:23:10;4.10;97.80
25058;DHT22;13057;50.978;11.034;2023-01-19T09:25:38;4.20;97.80
25058;DHT22;13057;50.978;11.034;2023-01-19T09:28:06;4.40;97.40
25058;DHT22;13057;50.978;11.034;2023-01-19T09:30:34;4.60;97.40
25058;DHT22;13057;50.978;11.034;2023-01-19T09:33:03;4.60;97.10
25058;DHT22;13057;50.978;11.034;2023-01-19T09:35:31;4.70;97.10
25058;DHT22;13057;50.978;11.034;2023-01-19T09:37:57;4.70;96.90
25058;DHT22;13057;50.978;11.034;2023-01-19T09:40:23;4.60;97.00
25058;DHT22;13057;50.978;11.034;2023-01-19T09:42:55;4.60;97.00
25058;DHT22;13057;50.978;11.034;2023-01-19T09:47:54;4.50;96.80
25058;DHT22;13057;50.978;11.034;2023-01-19T09:50:25;4.40;97.00
25058;DHT22;13057;50.978;11.034;2023-01-19T09:52:58;4.40;97.30
25058;DHT22;13057;50.978;11.034;2023-01-19T09:55:27;4.50;96.80
25058;DHT22;13057;50.978;11.034;2023-01-19T09:57:53;4.50;96.70
25058;DHT22;13057;50.978;11.034;2023-01-19T10:00:19;4.60;96.90
25058;DHT22;13057;50.978;11.034;2023-01-19T10:02:54;4.60;97.00
25058;DHT22;13057;50.978;11.034;2023-01-19T10:05:34;4.70;97.00
25058;DHT22;13057;50.978;11.034;2023-01-19T10:08:15;4.60;96.50
25058;DHT22;13057;50.978;11.034;2023-01-19T10:10:46;4.60;96.60
25058;DHT22;13057;50.978;11.034;2023-01-19T10:13:20;4.60;97.00
25058;DHT22;13057;50.978;11.034;2023-01-19T10:16:07;4.60;97.20
25058;DHT22;13057;50.978;11.034;2023-01-19T10:18:44;4.50;96.70
25058;DHT22;13057;50.978;11.034;2023-01-19T10:21:17;4.40;96.70
25058;DHT22;13057;50.978;11.034;2023-01-19T10:23:56;4.50;97.60
25058;DHT22;13057;50.978;11.034;2023-01-19T10:26:33;4.50;96.90
25058;DHT22;13057;50.978;11.034;2023-01-19T10:29:05;4.50;96.70
25058;DHT22;13057;50.978;11.034;2023-01-19T10:31:33;4.50;96.70
25058;DHT22;13057;50.978;11.034;2023-01-19T10:34:00;4.50;96.90
25058;DHT22;13057;50.978;11.034;2023-01-19T10:36:35;4.50;96.60
25058;DHT22;13057;50.978;11.034;2023-01-19T10:39:03;4.50;96.80
25058;DHT22;13057;50.978;11.034;2023-01-19T10:41:41;4.50;96.60
25058;DHT22;13057;50.978;11.034;2023-01-19T10:44:07;4.60;96.60
25058;DHT22;13057;50.978;11.034;2023-01-19T10:46:44;4.60;96.60
25058;DHT22;13057;50.978;11.034;2023-01-19T10:49:24;4.60;96.60
25058;DHT22;13057;50.978;11.034;2023-01-19T10:51:55;4.60;96.90
25058;DHT22;13057;50.978;11.034;2023-01-19T10:54:22;4.60;96.70
25058;DHT22;13057;50.978;11.034;2023-01-19T10:56:52;4.70;96.70
25058;DHT22;13057;50.978;11.034;2023-01-19T10:59:32;4.70;96.70
25058;DHT22;13057;50.978;11.034;2023-01-19T11:02:12;4.70;97.10
25058;DHT22;13057;50.978;11.034;2023-01-19T11:04:39;4.70;96.40
25058;DHT22;13057;50.978;11.034;2023-01-19T11:07:28;4.70;96.40
25058;DHT22;13057;50.978;11.034;2023-01-19T11:10:12;4.70;96.40
25058;DHT22;13057;50.978;11.034;2023-01-19T11:13:00;4.80;96.20
25058;DHT22;13057;50.978;11.034;2023-01-19T11:15:31;4.90;96.10
25058;DHT22;13057;50.978;11.034;2023-01-19T11:18:01;5.10;96.10
25058;DHT22;13057;50.978;11.034;2023-01-19T11:20:34;5.20;95.90
25058;DHT22;13057;50.978;11.034;2023-01-19T11:23:26;5.30;95.40
25058;DHT22;13057;50.978;11.034;2023-01-19T11:25:55;5.30;95.50
25058;DHT22;13057;50.978;11.034;2023-01-19T11:28:31;5.50;95.40
25058;DHT22;13057;50.978;11.034;2023-01-19T11:31:17;5.60;95.00
25058;DHT22;13057;50.978;11.034;2023-01-19T11:33:49;5.60;94.90
25058;DHT22;13057;50.978;11.034;2023-01-19T11:36:18;5.60;94.90
25058;DHT22;13057;50.978;11.034;2023-01-19T11:38:47;5.60;94.80
25058;DHT22;13057;50.978;11.034;2023-01-19T11:41:20;5.60;94.50
25058;DHT22;13057;50.978;11.034;2023-01-19T11:43:50;5.60;94.70
25058;DHT22;13057;50.978;11.034;2023-01-19T11:46:18;5.60;94.80
25058;DHT22;13057;50.978;11.034;2023-01-19T11:48:52;5.60;94.60
25058;DHT22;13057;50.978;11.034;2023-01-19T11:51:22;5.60;94.40
25058;DHT22;13057;50.978;11.034;2023-01-19T11:53:51;5.50;94.50
25058;DHT22;13057;50.978;11.034;2023-01-19T11:56:21;5.50;94.80
25058;DHT22;13057;50.978;11.034;2023-01-19T11:58:48;5.40;94.60
25058;DHT22;13057;50.978;11.034;2023-01-19T12:01:21;5.40;94.80
25058;DHT22;13057;50.978;11.034;2023-01-19T12:04:03;5.40;95.00
25058;DHT22;13057;50.978;11.034;2023-01-19T12:06:35;5.50;94.80
25058;DHT22;13057;50.978;11.034;2023-01-19T12:09:12;5.50;94.90
25058;DHT22;13057;50.978;11.034;2023-01-19T12:11:43;5.50;94.80
25058;DHT22;13057;50.978;11.034;2023-01-19T12:14:21;5.60;95.10
25058;DHT22;13057;50.978;11.034;2023-01-19T12:16:50;5.60;94.60
25058;DHT22;13057;50.978;11.034;2023-01-19T12:19:23;5.60;94.70
25058;DHT22;13057;50.978;11.034;2023-01-19T12:21:51;5.60;94.50
25058;DHT22;13057;50.978;11.034;2023-01-19T12:24:28;5.50;94.70
25058;DHT22;13057;50.978;11.034;2023-01-19T12:26:57;5.60;94.80
25058;DHT22;13057;50.978;11.034;2023-01-19T12:29:28;5.60;94.60
25058;DHT22;13057;50.978;11.034;2023-01-19T12:32:16;5.50;94.70
25058;DHT22;13057;50.978;11.034;2023-01-19T12:34:48;5.50;94.80
25058;DHT22;13057;50.978;11.034;2023-01-19T12:39:56;5.50;94.90
25058;DHT22;13057;50.978;11.034;2023-01-19T12:42:24;5.40;95.30
25058;DHT22;13057;50.978;11.034;2023-01-19T12:45:05;5.50;95.30
25058;DHT22;13057;50.978;11.034;2023-01-19T12:47:33;5.50;95.10
25058;DHT22;13057;50.978;11.034;2023-01-19T12:50:04;5.50;94.90
25058;DHT22;13057;50.978;11.034;2023-01-19T12:52:33;5.50;95.20
25058;DHT22;13057;50.978;11.034;2023-01-19T12:55:31;5.50;95.20
25058;DHT22;13057;50.978;11.034;2023-01-19T12:58:16;5.50;95.00
25058;DHT22;13057;50.978;11.034;2023-01-19T13:01:15;5.50;95.20
25058;DHT22;13057;50.978;11.034;2023-01-19T13:03:56;5.50;95.10
25058;DHT22;13057;50.978;11.034;2023-01-19T13:09:33;5.60;95.30
25058;DHT22;13057;50.978;11.034;2023-01-19T13:12:19;5.60;95.20
25058;DHT22;13057;50.978;11.034;2023-01-19T13:14:48;5.50;95.00
25058;DHT22;13057;50.978;11.034;2023-01-19T13:17:22;5.40;95.30
25058;DHT22;13057;50.978;11.034;2023-01-19T13:19:55;5.40;95.50
25058;DHT22;13057;50.978;11.034;2023-01-19T13:22:49;5.40;95.60
25058;DHT22;13057;50.978;11.034;2023-01-19T13:25:25;5.40;95.70
25058;DHT22;13057;50.978;11.034;2023-01-19T13:27:54;5.40;95.70
25058;DHT22;13057;50.978;11.034;2023-01-19T13:30:25;5.40;95.70
25058;DHT22;13057;50.978;11.034;2023-01-19T13:32:54;5.40;95.80
25058;DHT22;13057;50.978;11.034;2023-01-19T13:35:22;5.40;95.80
25058;DHT22;13057;50.978;11.034;2023-01-19T13:37:49;5.30;95.90
25058;DHT22;13057;50.978;11.034;2023-01-19T13:40:22;5.30;95.80
25058;DHT22;13057;50.978;11.034;2023-01-19T13:42:52;5.30;95.80
25058;DHT22;13057;50.978;11.034;2023-01-19T13:45:27;5.20;96.40
25058;DHT22;13057;50.978;11.034;2023-01-19T13:47:56;5.30;96.50
25058;DHT22;13057;50.978;11.034;2023-01-19T13:50:36;5.30;96.20
25058;DHT22;13057;50.978;11.034;2023-01-19T13:53:17;5.20;96.10
25058;DHT22;13057;50.978;11.034;2023-01-19T13:55:45;5.30;96.40
25058;DHT22;13057;50.978;11.034;2023-01-19T13:58:21;5.20;96.40
25058;DHT22;13057;50.978;11.034;2023-01-19T14:00:47;5.20;96.40
25058;DHT22;13057;50.978;11.034;2023-01-19T14:03:21;5.20;96.30
25058;DHT22;13057;50.978;11.034;2023-01-19T14:05:57;5.20;96.50
25058;DHT22;13057;50.978;11.034;2023-01-19T14:08:23;5.20;96.70
25058;DHT22;13057;50.978;11.034;2023-01-19T14:11:00;5.10;96.50
25058;DHT22;13057;50.978;11.034;2023-01-19T14:13:30;5.10;96.80
25058;DHT22;13057;50.978;11.034;2023-01-19T14:15:59;5.10;96.90
25058;DHT22;13057;50.978;11.034;2023-01-19T14:18:29;5.00;97.00
25058;DHT22;13057;50.978;11.034;2023-01-19T14:21:03;5.00;97.10
25058;DHT22;13057;50.978;11.034;2023-01-19T14:23:48;5.00;97.20
25058;DHT22;13057;50.978;11.034;2023-01-19T14:26:38;5.00;97.00
25058;DHT22;13057;50.978;11.034;2023-01-19T14:29:27;5.00;97.20
25058;DHT22;13057;50.978;11.034;2023-01-19T14:32:16;5.00;97.40
25058;DHT22;13057;50.978;11.034;2023-01-19T14:34:45;5.00;97.30
25058;DHT22;13057;50.978;11.034;2023-01-19T14:37:24;5.00;97.40
25058;DHT22;13057;50.978;11.034;2023-01-19T14:40:00;4.90;97.70
25058;DHT22;13057;50.978;11.034;2023-01-19T14:42:33;5.00;98.20
25058;DHT22;13057;50.978;11.034;2023-01-19T14:45:03;4.90;98.30
25058;DHT22;13057;50.978;11.034;2023-01-19T14:47:34;4.90;98.70
25058;DHT22;13057;50.978;11.034;2023-01-19T14:50:05;4.90;99.40
25058;DHT22;13057;50.978;11.034;2023-01-19T14:52:37;4.80;99.90
25058;DHT22;13057;50.978;11.034;2023-01-19T14:55:03;4.70;99.90
25058;DHT22;13057;50.978;11.034;2023-01-19T14:57:34;4.70;99.90
25058;DHT22;13057;50.978;11.034;2023-01-19T15:00:21;4.70;99.90
25058;DHT22;13057;50.978;11.034;2023-01-19T15:03:06;4.70;99.90
25058;DHT22;13057;50.978;11.034;2023-01-19T15:05:43;4.60;99.90
25058;DHT22;13057;50.978;11.034;2023-01-19T15:08:14;4.50;99.90
25058;DHT22;13057;50.978;11.034;2023-01-19T15:10:41;4.30;99.90
25058;DHT22;13057;50.978;11.034;2023-01-19T15:13:17;4.20;99.90
25058;DHT22;13057;50.978;11.034;2023-01-19T15:15:44;4.20;99.90
25058;DHT22;13057;50.978;11.034;2023-01-19T15:18:15;4.20;99.90
25058;DHT22;13057;50.978;11.034;2023-01-19T15:20:41;4.10;99.90
25058;DHT22;13057;50.978;11.034;2023-01-19T15:23:09;4.10;99.90
25058;DHT22;13057;50.978;11.034;2023-01-19T15:25:37;4.10;99.90
25058;DHT22;13057;50.978;11.034;2023-01-19T15:28:10;4.00;99.90
25058;DHT22;13057;50.978;11.034;2023-01-19T15:30:37;4.00;99.90
25058;DHT22;13057;50.978;11.034;2023-01-19T15:33:03;3.90;99.90
25058;DHT22;13057;50.978;11.034;2023-01-19T15:35:30;3.90;99.90
25058;DHT22;13057;50.978;11.034;2023-01-19T15:37:56;3.90;99.90
25058;DHT22;13057;50.978;11.034;2023-01-19T15:40:22;3.80;99.90
25058;DHT22;13057;50.978;11.034;2023-01-19T15:42:49;3.80;99.90
25058;DHT22;13057;50.978;11.034;2023-01-19T15:45:37;3.90;99.90
25058;DHT22;13057;50.978;11.034;2023-01-19T15:48:05;3.80;99.90
25058;DHT22;13057;50.978;11.034;2023-01-19T15:50:32;3.80;99.90
25058;DHT22;13057;50.978;11.034;2023-01-19T15:53:01;3.80;99.90
25058;DHT22;13057;50.978;11.034;2023-01-19T15:55:27;3.80;99.90
25058;DHT22;13057;50.978;11.034;2023-01-19T15:57:54;3.70;99.90